Aviation Digital Data Service (ADDS)

Output produced by METARs form (1656 UTC 02 September 2015)
found at http://aviationweather.gov/adds/metars/
 
KILG 021137Z 0212/0312 VRB03KT 3SM BR SCT060 BKN250 
     TEMPO 0212/0213 2SM BR 
     FM021500 21007KT P6SM SCT050 
     FM022200 27004KT P6SM FEW250